Time;durP1;ratioP1;P1;durP2;ratioP2;P2;SDS_P1;SDS_P2;PMS_P1;PMS_P2;Temp;Humidity;BMP_temperature;BMP_pressure;BME280_temperature;BME280_humidity;BME280_pressure;Samples;Min_cycle;Max_cycle;Signal;HPM_P1;HPM_P2
2022/05/07 00:00:38;;;;;;;41.95;37.17;;;12.30;99.90;;;;;;5054632;28;20121;-46
2022/05/07 00:03:04;;;;;;;43.47;38.78;;;12.30;99.90;;;;;;5061029;28;20114;-48
2022/05/07 00:05:31;;;;;;;44.13;39.33;;;12.30;99.90;;;;;;5061701;28;20051;-50
2022/05/07 00:07:57;;;;;;;45.10;40.08;;;12.30;99.90;;;;;;5061808;28;20079;-49
2022/05/07 00:10:23;;;;;;;49.53;40.00;;;12.40;99.90;;;;;;5057335;28;20094;-50
2022/05/07 00:12:49;;;;;;;43.25;38.75;;;12.40;99.90;;;;;;5036006;28;20053;-52
2022/05/07 00:15:15;;;;;;;44.92;39.30;;;12.40;99.90;;;;;;5054269;28;20135;-48
2022/05/07 00:20:25;;;;;;;45.60;38.90;;;12.40;99.90;;;;;;5053933;28;20052;-49
2022/05/07 00:22:51;;;;;;;43.80;39.25;;;12.40;99.90;;;;;;5053011;28;20469;-49
2022/05/07 00:25:17;;;;;;;46.88;41.85;;;12.30;99.90;;;;;;5053867;28;20581;-49
2022/05/07 00:27:42;;;;;;;46.88;41.97;;;12.30;99.90;;;;;;5054636;28;20037;-48
2022/05/07 00:30:08;;;;;;;42.70;38.30;;;12.30;99.90;;;;;;5058631;28;20406;-46
2022/05/07 00:32:34;;;;;;;46.08;40.42;;;12.30;99.90;;;;;;5048925;28;20043;-50
2022/05/07 00:35:00;;;;;;;50.17;40.55;;;12.30;99.90;;;;;;5058664;28;20131;-47
2022/05/07 00:37:26;;;;;;;44.50;40.05;;;12.30;99.90;;;;;;5048263;28;20396;-47
2022/05/07 00:39:53;;;;;;;45.50;40.80;;;12.30;99.90;;;;;;5059925;28;20106;-48
2022/05/07 00:42:22;;;;;;;45.80;40.97;;;12.30;99.90;;;;;;5034024;28;20055;-47
2022/05/07 00:44:49;;;;;;;50.08;43.10;;;12.30;99.90;;;;;;5052294;28;20103;-49
2022/05/07 00:47:25;;;;;;;45.75;41.13;;;12.30;99.90;;;;;;5038101;28;20053;-48
2022/05/07 00:49:54;;;;;;;44.65;40.03;;;12.30;99.90;;;;;;5048650;28;20418;-48
2022/05/07 00:52:20;;;;;;;43.53;39.20;;;12.30;99.90;;;;;;5057032;28;20568;-47
2022/05/07 00:54:47;;;;;;;44.63;39.92;;;12.30;99.90;;;;;;5059955;28;20057;-48
2022/05/07 00:57:14;;;;;;;47.35;42.13;;;12.30;99.90;;;;;;5063719;28;20456;-48
2022/05/07 00:59:40;;;;;;;46.05;41.15;;;12.30;99.90;;;;;;5062722;28;20513;-47
2022/05/07 01:02:06;;;;;;;44.13;39.60;;;12.30;99.90;;;;;;5059857;28;20048;-48
2022/05/07 01:04:32;;;;;;;43.97;39.58;;;12.30;99.90;;;;;;5038774;28;20125;-44
2022/05/07 01:06:58;;;;;;;44.03;39.55;;;12.30;99.90;;;;;;5059905;28;20056;-43
2022/05/07 01:09:24;;;;;;;44.97;40.17;;;12.30;99.90;;;;;;5058953;28;20097;-47
2022/05/07 01:11:51;;;;;;;45.30;40.75;;;12.20;99.90;;;;;;5057081;28;20052;-47
2022/05/07 01:14:17;;;;;;;46.10;41.28;;;12.20;99.90;;;;;;5055241;28;20519;-50
2022/05/07 01:16:42;;;;;;;44.50;40.10;;;12.20;99.90;;;;;;5062690;28;20486;-47
2022/05/07 01:19:08;;;;;;;44.28;39.70;;;12.20;99.90;;;;;;5062638;28;20071;-49
2022/05/07 01:21:34;;;;;;;45.65;40.97;;;12.20;99.90;;;;;;5062400;28;20040;-46
2022/05/07 01:24:00;;;;;;;43.33;38.83;;;12.30;99.90;;;;;;5057770;28;20037;-45
2022/05/07 01:26:26;;;;;;;41.22;37.03;;;12.20;99.90;;;;;;5057976;28;20053;-46
2022/05/07 01:29:01;;;;;;;41.78;37.38;;;12.20;99.90;;;;;;5064361;28;20059;-48
2022/05/07 01:31:27;;;;;;;43.78;39.20;;;12.20;99.90;;;;;;5067198;28;20168;-47
2022/05/07 01:33:54;;;;;;;41.25;36.90;;;12.20;99.90;;;;;;5062150;28;20048;-48
2022/05/07 01:36:20;;;;;;;41.58;37.33;;;12.20;99.90;;;;;;5063706;28;20044;-48
2022/05/07 01:38:46;;;;;;;43.83;37.58;;;12.20;99.90;;;;;;5058529;28;20055;-49
2022/05/07 01:41:12;;;;;;;42.28;38.17;;;12.20;99.90;;;;;;5062599;28;21180;-47
2022/05/07 01:43:38;;;;;;;41.95;37.80;;;12.20;99.90;;;;;;5058586;28;20059;-48
2022/05/07 01:48:09;;;;;;;41.15;36.80;;;12.20;99.90;;;;;;5062395;28;20045;-46
2022/05/07 01:48:50;;;;;;;43.13;38.70;;;12.20;99.90;;;;;;5055098;28;20517;-46
2022/05/07 01:51:15;;;;;;;43.08;38.60;;;12.10;99.90;;;;;;5060055;28;20048;-49
2022/05/07 01:53:41;;;;;;;42.33;37.72;;;12.10;99.90;;;;;;5061085;28;20059;-46
2022/05/07 01:56:07;;;;;;;43.20;38.90;;;12.00;99.90;;;;;;5050160;28;20048;-48
2022/05/07 01:58:33;;;;;;;46.30;40.25;;;12.00;99.90;;;;;;5063309;28;20048;-47
2022/05/07 02:00:58;;;;;;;42.55;38.30;;;11.90;99.90;;;;;;5055823;28;20056;-48
2022/05/07 02:03:24;;;;;;;42.45;38.17;;;11.90;99.90;;;;;;5061432;28;20514;-48
2022/05/07 02:05:49;;;;;;;43.42;39.08;;;11.90;99.90;;;;;;5059980;28;20117;-48
2022/05/07 02:08:16;;;;;;;42.60;38.13;;;11.90;99.90;;;;;;5062404;28;20052;-47
2022/05/07 02:10:42;;;;;;;43.30;38.95;;;11.80;99.90;;;;;;5057633;28;20143;-47
2022/05/07 02:13:07;;;;;;;42.35;38.05;;;11.90;99.90;;;;;;5057076;28;20069;-46
2022/05/07 02:15:33;;;;;;;41.67;37.58;;;11.80;99.90;;;;;;5048910;28;20117;-48
2022/05/07 02:17:59;;;;;;;43.13;38.65;;;11.90;99.90;;;;;;5062479;28;20052;-43
2022/05/07 02:20:25;;;;;;;43.35;39.08;;;11.90;99.90;;;;;;5056999;28;20053;-48
2022/05/07 02:22:57;;;;;;;44.83;40.08;;;11.90;99.90;;;;;;5053771;28;20052;-46
2022/05/07 02:25:24;;;;;;;41.22;37.30;;;11.80;99.90;;;;;;5054934;28;20098;-47
2022/05/07 02:27:50;;;;;;;40.78;36.70;;;11.90;99.90;;;;;;5061471;28;20082;-46
2022/05/07 02:30:19;;;;;;;42.35;37.65;;;11.90;99.90;;;;;;5061283;28;20044;-48
2022/05/07 02:32:47;;;;;;;40.53;36.45;;;11.80;99.90;;;;;;5062454;28;20040;-44
2022/05/07 02:35:13;;;;;;;41.53;36.45;;;11.80;99.90;;;;;;5059360;28;20047;-48
2022/05/07 02:37:38;;;;;;;42.40;38.03;;;11.80;99.90;;;;;;5051673;28;20048;-47
2022/05/07 02:40:05;;;;;;;42.55;38.45;;;11.80;99.90;;;;;;5053344;28;20048;-47
2022/05/07 02:42:33;;;;;;;41.00;36.80;;;11.80;99.90;;;;;;5056915;28;20796;-48
2022/05/07 02:45:00;;;;;;;42.65;38.28;;;11.70;99.90;;;;;;5058146;28;20048;-48
2022/05/07 02:47:26;;;;;;;40.75;36.83;;;11.70;99.90;;;;;;5033960;28;20792;-46
2022/05/07 02:49:51;;;;;;;42.17;37.95;;;11.70;99.90;;;;;;5063132;28;20049;-48
2022/05/07 02:52:17;;;;;;;41.97;37.63;;;11.70;99.90;;;;;;5061789;28;20052;-48
2022/05/07 02:54:43;;;;;;;41.83;37.75;;;11.70;99.90;;;;;;5042766;28;20787;-51
2022/05/07 02:57:08;;;;;;;43.75;39.28;;;11.70;99.90;;;;;;5055053;28;20564;-49
2022/05/07 02:59:34;;;;;;;41.00;37.03;;;11.60;99.90;;;;;;5061658;28;20076;-49
2022/05/07 03:02:00;;;;;;;42.20;38.17;;;11.70;99.90;;;;;;5061131;28;20479;-45
2022/05/07 03:04:26;;;;;;;42.05;37.40;;;11.70;99.90;;;;;;5055897;28;20574;-46
2022/05/07 03:06:52;;;;;;;40.25;36.15;;;11.60;99.90;;;;;;5061381;28;20052;-49
2022/05/07 03:09:18;;;;;;;41.35;37.25;;;11.60;99.90;;;;;;5059838;28;20700;-48
2022/05/07 03:11:44;;;;;;;42.83;38.40;;;11.60;99.90;;;;;;5061634;28;20089;-48
2022/05/07 03:14:09;;;;;;;41.65;37.55;;;11.70;99.90;;;;;;5053575;28;20420;-48
2022/05/07 03:16:38;;;;;;;42.53;38.08;;;11.70;99.90;;;;;;5041574;28;20525;-48
2022/05/07 03:19:05;;;;;;;40.72;36.63;;;11.70;99.90;;;;;;5056631;28;20131;-47
2022/05/07 03:21:30;;;;;;;37.35;33.72;;;11.70;99.90;;;;;;5060335;28;20048;-47
2022/05/07 03:23:56;;;;;;;39.22;35.13;;;11.70;99.90;;;;;;5051099;28;20396;-46
2022/05/07 03:26:22;;;;;;;41.83;37.33;;;11.80;99.90;;;;;;5059645;28;20170;-45
2022/05/07 03:28:49;;;;;;;41.58;37.38;;;11.80;99.90;;;;;;5058085;28;20041;-46
2022/05/07 03:31:15;;;;;;;40.08;35.85;;;11.80;99.90;;;;;;5058065;28;20521;-46
2022/05/07 03:33:41;;;;;;;40.05;36.17;;;11.80;99.90;;;;;;5058974;28;20048;-50
2022/05/07 03:36:06;;;;;;;41.50;37.45;;;11.80;99.90;;;;;;5051273;28;20373;-48
2022/05/07 03:38:32;;;;;;;43.20;38.88;;;11.80;99.90;;;;;;5056440;28;20137;-46
2022/05/07 03:40:58;;;;;;;41.28;37.22;;;11.80;99.90;;;;;;5060228;28;20044;-46
2022/05/07 03:43:24;;;;;;;40.70;36.47;;;11.90;99.90;;;;;;5056489;28;20058;-47
2022/05/07 03:45:50;;;;;;;42.40;38.17;;;11.90;99.90;;;;;;5055189;28;20109;-44
2022/05/07 03:48:16;;;;;;;42.03;37.95;;;11.90;99.90;;;;;;5056720;28;20097;-49
2022/05/07 03:50:42;;;;;;;41.58;37.70;;;11.90;99.90;;;;;;5053655;28;20048;-47
2022/05/07 03:55:52;;;;;;;42.08;37.92;;;12.00;99.90;;;;;;5062116;28;20164;-47
2022/05/07 03:58:18;;;;;;;42.75;38.45;;;12.00;99.90;;;;;;5046541;28;20131;-46
2022/05/07 04:00:44;;;;;;;42.78;38.42;;;12.00;99.90;;;;;;5060061;28;20052;-47
2022/05/07 04:03:11;;;;;;;42.15;37.88;;;12.00;99.90;;;;;;5041972;28;20082;-48
2022/05/07 04:05:37;;;;;;;42.53;38.33;;;12.00;99.90;;;;;;5060521;28;20048;-48
2022/05/07 04:08:03;;;;;;;43.80;39.30;;;12.00;99.90;;;;;;5059852;28;20051;-46
2022/05/07 04:10:29;;;;;;;40.67;36.60;;;12.00;99.90;;;;;;5057443;28;20135;-47
2022/05/07 04:12:55;;;;;;;40.25;36.30;;;12.00;99.90;;;;;;5034999;28;20066;-48
2022/05/07 04:15:21;;;;;;;40.70;36.83;;;12.00;99.90;;;;;;5057416;28;20419;-48
2022/05/07 04:17:48;;;;;;;40.38;36.38;;;12.00;99.90;;;;;;5052194;28;20060;-49
2022/05/07 04:20:14;;;;;;;41.25;37.13;;;11.90;99.90;;;;;;5057821;28;20109;-46
2022/05/07 04:22:40;;;;;;;39.20;35.40;;;12.00;99.90;;;;;;5059792;28;20048;-47
2022/05/07 04:25:07;;;;;;;40.42;36.45;;;12.00;99.90;;;;;;5064736;28;20051;-47
2022/05/07 04:27:33;;;;;;;40.13;36.13;;;12.00;99.90;;;;;;5067348;28;20064;-46
2022/05/07 04:29:59;;;;;;;42.15;37.92;;;12.00;99.90;;;;;;5067791;28;20347;-47
2022/05/07 04:32:26;;;;;;;40.40;36.40;;;12.10;99.90;;;;;;5066942;28;20462;-46
2022/05/07 04:34:52;;;;;;;42.63;37.97;;;12.10;99.90;;;;;;5049072;28;20044;-46
2022/05/07 04:37:18;;;;;;;42.33;38.10;;;12.10;99.90;;;;;;5063712;28;20048;-48
2022/05/07 04:39:44;;;;;;;42.72;38.55;;;12.10;99.90;;;;;;5066023;28;20585;-46
2022/05/07 04:42:09;;;;;;;40.65;36.75;;;12.10;99.90;;;;;;5062941;28;20048;-49
2022/05/07 04:44:35;;;;;;;43.05;38.60;;;12.10;99.90;;;;;;5044375;28;20060;-47
2022/05/07 04:47:01;;;;;;;42.08;37.88;;;12.10;99.90;;;;;;5058011;28;20040;-43
2022/05/07 04:49:27;;;;;;;42.25;38.00;;;12.10;99.90;;;;;;5047491;28;20053;-47
2022/05/07 04:51:53;;;;;;;41.72;37.65;;;12.20;99.90;;;;;;5067194;28;20054;-47
2022/05/07 04:54:20;;;;;;;42.70;38.55;;;12.10;99.90;;;;;;5061378;28;20098;-49
2022/05/07 04:56:46;;;;;;;40.90;36.72;;;12.20;99.90;;;;;;5057509;28;20482;-47
2022/05/07 04:59:13;;;;;;;40.60;36.50;;;12.20;99.90;;;;;;5064937;28;20051;-44
2022/05/07 05:01:39;;;;;;;39.47;35.55;;;12.20;99.90;;;;;;5048741;28;20056;-47
2022/05/07 05:04:05;;;;;;;40.47;36.42;;;12.30;99.90;;;;;;5066183;28;20463;-48
2022/05/07 05:06:31;;;;;;;40.45;36.65;;;12.30;99.90;;;;;;5063164;28;20051;-48
2022/05/07 05:08:57;;;;;;;41.33;37.17;;;12.30;99.90;;;;;;5064549;28;20069;-47
2022/05/07 05:11:22;;;;;;;42.97;38.67;;;12.30;99.90;;;;;;5068901;28;20056;-47
2022/05/07 05:13:48;;;;;;;40.92;36.95;;;12.30;99.90;;;;;;5063953;28;20452;-50
2022/05/07 05:16:14;;;;;;;41.53;37.35;;;12.40;99.90;;;;;;5064988;28;20550;-53
2022/05/07 05:18:40;;;;;;;42.65;38.50;;;12.40;99.90;;;;;;5057353;28;20040;-47
2022/05/07 05:21:06;;;;;;;42.42;38.28;;;12.40;99.90;;;;;;5058038;28;20048;-47
2022/05/07 05:23:32;;;;;;;41.50;37.40;;;12.40;99.90;;;;;;5060773;28;20048;-46
2022/05/07 05:25:58;;;;;;;41.60;37.70;;;12.40;99.90;;;;;;5064722;28;20544;-48
2022/05/07 05:28:24;;;;;;;41.88;37.65;;;12.40;99.90;;;;;;5062857;28;20048;-47
2022/05/07 05:30:52;;;;;;;41.42;37.35;;;12.50;99.90;;;;;;5066342;28;20051;-48
2022/05/07 05:33:19;;;;;;;40.90;37.10;;;12.50;99.90;;;;;;5059330;28;20048;-49
2022/05/07 05:35:47;;;;;;;40.60;36.50;;;12.50;99.90;;;;;;5039750;28;20531;-47
2022/05/07 05:38:15;;;;;;;42.72;38.33;;;12.60;99.90;;;;;;5052002;28;20548;-48
2022/05/07 05:40:41;;;;;;;42.45;38.05;;;12.60;99.90;;;;;;5028099;28;20492;-50
2022/05/07 05:43:08;;;;;;;42.45;38.10;;;12.60;99.90;;;;;;5034907;28;20056;-47
2022/05/07 05:45:34;;;;;;;42.13;38.13;;;12.70;99.90;;;;;;5063134;28;20088;-49
2022/05/07 05:48:01;;;;;;;40.65;36.78;;;12.70;99.90;;;;;;5062245;28;20507;-48
2022/05/07 05:50:31;;;;;;;41.38;37.03;;;12.70;99.90;;;;;;5056590;28;20052;-45
2022/05/07 05:52:59;;;;;;;42.05;37.85;;;12.80;99.90;;;;;;5058270;28;20044;-50
2022/05/07 05:55:25;;;;;;;42.35;38.10;;;13.00;99.90;;;;;;5063402;28;20040;-46
2022/05/07 05:57:51;;;;;;;40.33;36.45;;;13.10;99.90;;;;;;5044319;28;20509;-47
2022/05/07 06:00:17;;;;;;;40.88;36.80;;;13.20;99.90;;;;;;5051643;28;20094;-46
2022/05/07 06:02:44;;;;;;;39.70;36.00;;;13.40;99.90;;;;;;5061307;28;20049;-47
2022/05/07 06:05:11;;;;;;;40.53;36.78;;;13.70;99.90;;;;;;5059516;28;20052;-47
2022/05/07 06:07:37;;;;;;;39.50;35.63;;;14.20;99.90;;;;;;5063374;28;20041;-48
2022/05/07 06:10:04;;;;;;;40.70;36.67;;;15.40;99.90;;;;;;5056306;28;20043;-46
2022/05/07 06:12:30;;;;;;;38.65;34.75;;;16.10;99.90;;;;;;5049653;28;20492;-47
2022/05/07 06:14:56;;;;;;;38.15;34.60;;;17.10;99.90;;;;;;5049271;28;20179;-46
2022/05/07 06:17:22;;;;;;;35.75;32.42;;;18.30;99.90;;;;;;5052540;28;20055;-49
2022/05/07 06:19:48;;;;;;;35.25;32.05;;;19.20;99.90;;;;;;5062969;28;20076;-49
2022/05/07 06:22:14;;;;;;;34.80;31.52;;;19.80;99.90;;;;;;5058711;28;20140;-49
2022/05/07 06:27:33;;;;;;;34.28;30.90;;;20.80;99.90;;;;;;5065077;28;20138;-49
2022/05/07 06:30:01;;;;;;;34.30;31.40;;;20.70;99.90;;;;;;5061270;28;20088;-51
2022/05/07 06:32:34;;;;;;;34.50;31.38;;;20.00;99.90;;;;;;5057941;28;20055;-51
2022/05/07 06:35:05;;;;;;;34.45;31.27;;;19.40;99.90;;;;;;5059727;28;20554;-50
2022/05/07 06:37:35;;;;;;;34.42;31.33;;;19.00;99.90;;;;;;5058698;28;20052;-51
2022/05/07 06:40:03;;;;;;;34.05;30.88;;;18.80;99.90;;;;;;5062014;28;20086;-51
2022/05/07 06:42:29;;;;;;;33.60;30.70;;;18.50;99.90;;;;;;5059870;28;20065;-50
2022/05/07 06:44:55;;;;;;;34.30;30.95;;;18.40;99.90;;;;;;5061646;28;20572;-50
2022/05/07 06:47:20;;;;;;;34.42;31.38;;;18.20;99.90;;;;;;5061292;28;20051;-49
2022/05/07 06:49:46;;;;;;;34.45;31.30;;;18.00;99.90;;;;;;5057214;28;20521;-51
2022/05/07 06:52:12;;;;;;;33.53;30.42;;;17.80;99.90;;;;;;5034522;28;20036;-50
2022/05/07 06:54:38;;;;;;;36.00;32.70;;;17.70;99.90;;;;;;5060558;28;20040;-49
2022/05/07 06:57:04;;;;;;;36.00;32.47;;;17.80;99.90;;;;;;5060726;28;20055;-50
2022/05/07 06:59:33;;;;;;;36.28;32.72;;;17.80;99.90;;;;;;5057685;28;20446;-47
2022/05/07 07:01:59;;;;;;;35.47;32.17;;;17.90;99.90;;;;;;5061282;28;20510;-50
2022/05/07 07:04:25;;;;;;;37.25;33.85;;;18.00;99.90;;;;;;5055647;28;20064;-46
2022/05/07 07:06:51;;;;;;;37.70;34.10;;;18.10;99.90;;;;;;5061043;28;20499;-52
2022/05/07 07:09:18;;;;;;;37.20;33.72;;;18.10;99.90;;;;;;5057319;28;20982;-49
2022/05/07 07:11:44;;;;;;;40.13;36.30;;;18.10;99.90;;;;;;5056085;28;20056;-48
2022/05/07 07:14:10;;;;;;;39.92;36.13;;;18.00;99.90;;;;;;5056736;28;20391;-51
2022/05/07 07:16:36;;;;;;;40.22;36.60;;;18.00;99.90;;;;;;5060847;28;20491;-52
2022/05/07 07:19:03;;;;;;;39.67;35.78;;;17.90;99.90;;;;;;5042710;28;20064;-49
2022/05/07 07:21:28;;;;;;;41.30;37.38;;;17.90;99.90;;;;;;5042487;28;20048;-49
2022/05/07 07:23:56;;;;;;;38.03;34.65;;;17.70;99.90;;;;;;5031411;28;20529;-49
2022/05/07 07:26:21;;;;;;;40.95;37.42;;;17.60;99.90;;;;;;5056456;28;20048;-48
2022/05/07 07:28:47;;;;;;;39.45;35.95;;;17.60;99.90;;;;;;5060924;28;20048;-49
2022/05/07 07:31:13;;;;;;;39.88;36.30;;;17.70;99.90;;;;;;5056123;28;20542;-51
2022/05/07 07:33:39;;;;;;;39.40;35.83;;;17.60;99.90;;;;;;5058967;28;20052;-48
2022/05/07 07:36:06;;;;;;;40.78;37.20;;;17.80;99.90;;;;;;5060006;28;20048;-50
2022/05/07 07:38:32;;;;;;;39.65;36.10;;;17.80;99.90;;;;;;5055314;28;20047;-46
2022/05/07 07:40:58;;;;;;;39.88;36.25;;;17.90;99.90;;;;;;5059554;28;20036;-48
2022/05/07 07:43:24;;;;;;;42.35;38.40;;;17.80;99.90;;;;;;5057914;28;20052;-50
2022/05/07 07:48:34;;;;;;;41.85;37.63;;;17.80;99.90;;;;;;5041815;28;20072;-50
2022/05/07 07:51:01;;;;;;;40.60;36.80;;;17.70;99.90;;;;;;5060570;28;20359;-51
2022/05/07 07:53:26;;;;;;;43.15;39.20;;;17.70;99.90;;;;;;5046809;28;20048;-50
2022/05/07 07:55:52;;;;;;;44.10;39.75;;;17.60;99.90;;;;;;5058071;28;20043;-51
2022/05/07 07:58:18;;;;;;;43.58;39.28;;;17.70;99.90;;;;;;5048917;28;20041;-50
2022/05/07 08:00:44;;;;;;;43.53;39.20;;;17.70;99.90;;;;;;5048569;28;20156;-53
2022/05/07 08:03:20;;;;;;;41.78;37.80;;;17.60;99.90;;;;;;5054458;28;20640;-50
2022/05/07 08:05:52;;;;;;;42.58;38.47;;;17.50;99.90;;;;;;5030059;28;20131;-48
2022/05/07 08:13:49;;;;;;;44.22;40.08;;;17.40;99.90;;;;;;5046369;28;20044;-48
2022/05/07 08:16:19;;;;;;;44.08;39.80;;;17.40;99.90;;;;;;5053850;28;20045;-49
2022/05/07 08:18:45;;;;;;;43.47;39.15;;;17.20;99.90;;;;;;5040108;28;20184;-49
2022/05/07 08:21:11;;;;;;;44.63;40.30;;;17.20;99.90;;;;;;5041039;28;20424;-49
2022/05/07 08:23:38;;;;;;;42.75;38.35;;;17.30;99.90;;;;;;5053423;28;20053;-49
2022/05/07 08:26:16;;;;;;;45.38;41.13;;;17.40;99.90;;;;;;5059753;28;20412;-48
2022/05/07 08:28:42;;;;;;;42.88;38.90;;;17.40;99.90;;;;;;5046689;28;20515;-50
2022/05/07 08:31:10;;;;;;;44.50;40.00;;;17.40;99.90;;;;;;5053172;28;20114;-52
2022/05/07 08:33:37;;;;;;;44.38;40.22;;;17.60;99.90;;;;;;5049695;28;20064;-50
2022/05/07 08:36:03;;;;;;;42.42;38.58;;;17.60;99.90;;;;;;5027783;28;20519;-46
2022/05/07 08:38:29;;;;;;;42.28;38.33;;;17.70;99.90;;;;;;5041892;28;20618;-49
2022/05/07 08:41:00;;;;;;;42.90;39.03;;;17.80;99.90;;;;;;5044789;28;20060;-45
2022/05/07 08:43:38;;;;;;;42.58;38.45;;;18.00;99.90;;;;;;5024881;28;20068;-46
2022/05/07 08:46:19;;;;;;;44.20;40.00;;;18.10;99.90;;;;;;5052676;28;20067;-51
2022/05/07 08:48:46;;;;;;;41.33;37.33;;;18.10;99.90;;;;;;5057897;28;20050;-49
2022/05/07 08:51:17;;;;;;;42.53;38.47;;;18.20;99.90;;;;;;5050995;28;20049;-48
2022/05/07 08:53:49;;;;;;;42.83;38.83;;;18.30;99.90;;;;;;5062018;28;20098;-51
2022/05/07 08:56:15;;;;;;;44.00;39.75;;;18.40;99.90;;;;;;5039546;28;20132;-52
2022/05/07 08:58:50;;;;;;;41.72;37.75;;;18.50;99.90;;;;;;5060225;28;20122;-51
2022/05/07 09:01:16;;;;;;;41.03;37.17;;;18.80;99.90;;;;;;5052078;28;20518;-51
2022/05/07 09:03:45;;;;;;;42.45;38.17;;;18.90;99.90;;;;;;5010101;28;20142;-50
2022/05/07 09:06:18;;;;;;;42.65;38.38;;;18.80;99.90;;;;;;5048458;28;20586;-51
2022/05/07 09:08:46;;;;;;;43.00;38.80;;;18.90;99.90;;;;;;5059481;28;20060;-50
2022/05/07 09:11:11;;;;;;;43.22;38.97;;;18.90;99.90;;;;;;5038623;28;20048;-50
2022/05/07 09:13:37;;;;;;;43.63;39.42;;;19.00;99.90;;;;;;5030862;28;20045;-52
2022/05/07 09:16:06;;;;;;;44.92;40.25;;;19.10;99.90;;;;;;5058992;28;20115;-50
2022/05/07 09:18:32;;;;;;;45.10;40.50;;;19.00;99.90;;;;;;5062048;28;20052;-47
2022/05/07 09:21:16;;;;;;;44.45;40.10;;;19.20;99.90;;;;;;5056603;28;20565;-50
2022/05/07 09:24:03;;;;;;;45.35;40.78;;;19.20;99.90;;;;;;5037045;28;20088;-49
2022/05/07 09:26:33;;;;;;;47.58;42.50;;;19.40;99.90;;;;;;5039989;28;20067;-51
2022/05/07 09:29:03;;;;;;;47.63;42.80;;;19.30;99.90;;;;;;5051396;28;20515;-48
2022/05/07 09:31:33;;;;;;;50.03;44.78;;;19.30;99.90;;;;;;5038174;28;20053;-51
2022/05/07 09:36:53;;;;;;;49.28;44.28;;;19.20;99.90;;;;;;5056731;28;20063;-52
2022/05/07 09:39:18;;;;;;;52.42;45.35;;;19.10;99.90;;;;;;5041020;28;20056;-51
2022/05/07 09:41:44;;;;;;;49.25;42.63;;;19.00;99.90;;;;;;5059622;28;21452;-52
2022/05/07 09:44:11;;;;;;;46.15;41.25;;;19.10;99.90;;;;;;5061730;28;20443;-53
2022/05/07 09:46:38;;;;;;;47.85;41.63;;;19.20;99.90;;;;;;5062518;28;20506;-51
2022/05/07 09:49:05;;;;;;;52.85;43.88;;;19.20;99.90;;;;;;5059853;28;20060;-50
2022/05/07 09:51:31;;;;;;;46.65;41.33;;;19.20;99.90;;;;;;5062705;28;20079;-49
2022/05/07 09:59:28;;;;;;;42.22;37.97;;;19.50;99.90;;;;;;5062664;28;20150;-49
2022/05/07 10:02:16;;;;;;;42.40;37.88;;;19.70;99.90;;;;;;5055487;28;20088;-48
2022/05/07 10:05:07;;;;;;;38.88;34.17;;;19.50;99.90;;;;;;5056163;28;20091;-51
2022/05/07 10:08:11;;;;;;;36.58;31.63;;;19.70;99.90;;;;;;5060537;28;20491;-49
2022/05/07 10:11:32;;;;;;;36.85;32.88;;;19.90;99.90;;;;;;5054611;28;20530;-46
2022/05/07 10:13:58;;;;;;;38.78;32.42;;;20.00;99.90;;;;;;5034730;28;20056;-52
2022/05/07 10:16:31;;;;;;;34.03;29.88;;;20.20;99.90;;;;;;5062421;28;20056;-56
2022/05/07 10:18:56;;;;;;;37.83;33.65;;;20.40;99.90;;;;;;5061069;28;20566;-51
2022/05/07 10:21:22;;;;;;;38.08;33.88;;;20.50;99.90;;;;;;5043487;28;20048;-51
2022/05/07 10:23:48;;;;;;;39.05;34.95;;;20.60;99.90;;;;;;5055685;28;20049;-51
2022/05/07 10:26:14;;;;;;;41.47;37.05;;;20.60;99.90;;;;;;5060317;28;20055;-51
2022/05/07 10:28:42;;;;;;;43.20;38.47;;;20.50;99.90;;;;;;5050861;28;20053;-52
2022/05/07 10:31:22;;;;;;;43.38;38.40;;;20.40;99.90;;;;;;5042917;28;20136;-54
2022/05/07 10:33:49;;;;;;;43.78;38.67;;;20.40;99.90;;;;;;5058312;28;20064;-49
2022/05/07 10:36:19;;;;;;;43.20;38.75;;;20.40;99.90;;;;;;5053316;28;20041;-54
2022/05/07 10:38:46;;;;;;;40.72;36.47;;;20.50;99.90;;;;;;5034697;28;20500;-52
2022/05/07 10:41:12;;;;;;;40.15;36.13;;;20.60;99.90;;;;;;5051430;28;20053;-51
2022/05/07 10:43:39;;;;;;;42.53;38.28;;;20.70;99.90;;;;;;5055801;28;20095;-51
2022/05/07 10:46:07;;;;;;;41.67;37.08;;;20.50;99.90;;;;;;5053828;28;20056;-52
2022/05/07 10:48:53;;;;;;;39.05;34.67;;;20.40;99.90;;;;;;5050634;28;20519;-53
2022/05/07 10:51:38;;;;;;;39.70;34.88;;;20.40;99.90;;;;;;5056999;28;20379;-51
2022/05/07 10:54:24;;;;;;;40.03;35.70;;;20.60;99.90;;;;;;5051811;28;20083;-51
2022/05/07 10:56:55;;;;;;;43.85;39.35;;;20.90;99.90;;;;;;5059091;28;20094;-51
2022/05/07 10:59:22;;;;;;;44.85;40.03;;;20.80;99.90;;;;;;5052822;28;20130;-51
2022/05/07 11:01:49;;;;;;;50.40;45.08;;;20.80;99.90;;;;;;5054812;28;20048;-51
2022/05/07 11:04:18;;;;;;;49.25;43.90;;;20.40;99.90;;;;;;5053663;28;20052;-50
2022/05/07 11:06:52;;;;;;;49.60;44.35;;;20.40;99.90;;;;;;5060486;28;20381;-50
2022/05/07 11:09:25;;;;;;;56.17;49.08;;;20.40;99.90;;;;;;5036558;28;20155;-50
2022/05/07 11:11:56;;;;;;;54.72;48.72;;;20.20;99.90;;;;;;5033363;28;20056;-52
2022/05/07 11:14:27;;;;;;;53.85;47.25;;;20.20;99.90;;;;;;5051022;28;20060;-51
2022/05/07 11:16:55;;;;;;;50.97;45.42;;;20.10;99.90;;;;;;5032118;28;20583;-50
2022/05/07 11:19:27;;;;;;;51.42;45.78;;;19.90;99.90;;;;;;5018971;28;20136;-52
2022/05/07 11:21:55;;;;;;;49.75;44.20;;;19.90;99.90;;;;;;5040014;28;20076;-48
2022/05/07 11:24:21;;;;;;;53.08;44.50;;;19.60;99.90;;;;;;5017964;28;20242;-51
2022/05/07 11:27:02;;;;;;;46.88;41.65;;;19.70;99.90;;;;;;5057082;28;20059;-52
2022/05/07 11:29:29;;;;;;;46.25;41.28;;;19.30;99.90;;;;;;5038249;28;20060;-51
2022/05/07 11:32:07;;;;;;;49.00;42.47;;;19.50;99.90;;;;;;5064092;28;20048;-48
2022/05/07 11:34:33;;;;;;;49.58;41.35;;;19.40;99.90;;;;;;5049732;28;20065;-51
2022/05/07 11:37:29;;;;;;;49.00;41.08;;;19.60;99.90;;;;;;5052462;28;20044;-52
2022/05/07 11:40:00;;;;;;;44.65;39.72;;;19.50;99.90;;;;;;4954926;28;20086;-49
2022/05/07 11:42:39;;;;;;;45.23;40.50;;;19.70;99.90;;;;;;4957152;28;20051;-44
2022/05/07 11:45:33;;;;;;;43.10;36.42;;;19.80;99.90;;;;;;4954468;28;20494;-50
2022/05/07 11:48:07;;;;;;;39.38;35.20;;;19.80;99.90;;;;;;4952297;28;20050;-51
2022/05/07 11:50:40;;;;;;;38.15;32.63;;;19.90;99.90;;;;;;4952012;28;20100;-48
2022/05/07 11:53:10;;;;;;;;;;;20.00;99.90;;;;;;4949675;28;20543;-49
2022/05/07 11:55:36;;;;;;;32.45;28.58;;;19.70;99.90;;;;;;4932819;28;19961;-50
2022/05/07 11:58:21;;;;;;;36.55;30.02;;;19.80;99.90;;;;;;4936860;28;20146;-47
2022/05/07 12:00:51;;;;;;;32.88;29.30;;;19.60;99.90;;;;;;4954181;28;20461;-50
2022/05/07 12:03:27;;;;;;;33.75;30.02;;;19.60;99.90;;;;;;4954165;28;20067;-49
2022/05/07 12:05:55;;;;;;;32.40;27.90;;;19.50;99.90;;;;;;4954321;28;20054;-48
2022/05/07 12:08:31;;;;;;;30.60;26.63;;;19.50;99.90;;;;;;4935900;29;20070;-48
2022/05/07 12:10:58;;;;;;;41.05;25.13;;;19.60;99.90;;;;;;4928622;28;20395;-49
2022/05/07 12:13:25;;;;;;;31.70;26.60;;;19.70;99.90;;;;;;4954531;28;20071;-50
2022/05/07 12:18:40;;;;;;;34.00;25.38;;;19.50;99.90;;;;;;5050125;28;20059;-47
2022/05/07 12:21:07;;;;;;;25.80;23.00;;;19.50;99.90;;;;;;5058225;28;20075;-50
2022/05/07 12:31:46;;;;;;;26.75;23.73;;;19.70;99.90;;;;;;5054270;28;20475;-50
2022/05/07 12:34:12;;;;;;;26.80;22.70;;;19.60;99.90;;;;;;5054396;28;20040;-49
2022/05/07 12:36:37;;;;;;;26.27;21.00;;;19.40;99.90;;;;;;5049005;28;20045;-50
2022/05/07 12:39:03;;;;;;;26.40;21.42;;;19.20;99.90;;;;;;5053490;28;20055;-49
2022/05/07 12:41:31;;;;;;;25.25;21.63;;;19.00;99.90;;;;;;5055662;28;20041;-48
2022/05/07 12:43:58;;;;;;;25.75;23.00;;;18.90;99.90;;;;;;5053737;28;20123;-50
2022/05/07 12:46:25;;;;;;;27.95;22.90;;;18.90;99.90;;;;;;5038678;28;20064;-49
2022/05/07 12:48:51;;;;;;;25.80;22.90;;;18.90;99.90;;;;;;5061687;28;20032;-49
2022/05/07 12:51:17;;;;;;;25.77;22.98;;;19.00;99.90;;;;;;5060852;28;20044;-49
2022/05/07 12:53:43;;;;;;;25.30;21.45;;;18.90;99.90;;;;;;5054194;28;20049;-50
2022/05/07 12:56:09;;;;;;;32.88;21.70;;;18.90;99.90;;;;;;5041697;28;20074;-52
2022/05/07 12:58:35;;;;;;;23.13;19.50;;;19.00;99.90;;;;;;5059230;28;20148;-51
2022/05/07 13:01:01;;;;;;;36.13;20.35;;;19.20;99.90;;;;;;5061288;28;20068;-51
2022/05/07 13:03:30;;;;;;;23.17;17.48;;;19.00;99.90;;;;;;5055662;28;20477;-51
2022/05/07 13:05:55;;;;;;;20.90;17.75;;;19.00;99.90;;;;;;5043990;28;20048;-47
2022/05/07 13:08:21;;;;;;;19.58;16.73;;;18.90;99.90;;;;;;5055871;28;20045;-49